In Rescue
 
Open Full Screen Window  High Contrast Mode
Wind Gusting 00 knots
06
April 20, 2024 8:03 AM CDT
Weather Information
Wind Direction
  310 °
Wind Speed
  06 kt (7 mph)
Wind Gust
  00 kt (0 mph)
Altimeter
30.19 in
Visibility
10 SM
Temperature
00° C
32° F
Dewpoint
-05° C
23° F
Humidity
69%
Sky Condition
Overcast @ 3,100 ft
VFR

METAR KMZH 201303Z AUTO 31006KT 10SM OVC031 00/M05 A3019 RMK AO2

FAA Disclaimer: The data displayed is for advisory purposes only and is not to be used for flight planning or operations.